Time;durP1;ratioP1;P1;durP2;ratioP2;P2;SDS_P1;SDS_P2;PMS_P1;PMS_P2;Temp;Humidity;BMP_temperature;BMP_pressure;BME280_temperature;BME280_humidity;BME280_pressure;Samples;Min_cycle;Max_cycle;Signal;HPM_P1;HPM_P2
2023/12/21 00:01:56;;;;;;;7.30;1.55;;;10.90;99.90;;;;;;5059545;28;20456;-69
2023/12/21 00:04:22;;;;;;;4.63;1.48;;;11.00;99.90;;;;;;5058754;28;20361;-66
2023/12/21 00:06:47;;;;;;;5.03;1.77;;;11.10;99.90;;;;;;5059387;28;20091;-68
2023/12/21 00:09:13;;;;;;;4.30;1.63;;;11.00;99.90;;;;;;5058512;28;20029;-66
2023/12/21 00:11:39;;;;;;;3.40;1.60;;;10.90;99.90;;;;;;5059586;28;20040;-66
2023/12/21 00:14:05;;;;;;;8.52;1.90;;;10.90;99.90;;;;;;5075060;28;20044;-66
2023/12/21 00:16:31;;;;;;;7.18;1.58;;;11.00;99.90;;;;;;5075270;28;20313;-67
2023/12/21 00:18:56;;;;;;;6.57;1.20;;;11.00;99.90;;;;;;5058459;28;20045;-66
2023/12/21 00:21:22;;;;;;;8.88;1.63;;;10.90;99.90;;;;;;5059081;28;20309;-67
2023/12/21 00:23:48;;;;;;;6.47;1.58;;;10.90;99.90;;;;;;5058431;28;20037;-71
2023/12/21 00:26:14;;;;;;;8.35;1.70;;;10.80;99.90;;;;;;5074883;28;20029;-71
2023/12/21 00:28:40;;;;;;;6.68;1.30;;;10.70;99.90;;;;;;5074055;28;20036;-68
2023/12/21 00:31:06;;;;;;;7.53;1.73;;;10.80;99.90;;;;;;5058416;28;20033;-67
2023/12/21 00:33:31;;;;;;;5.75;1.92;;;10.80;99.90;;;;;;5059111;28;20282;-66
2023/12/21 00:35:57;;;;;;;8.35;2.08;;;10.80;99.90;;;;;;5058104;28;20094;-67
2023/12/21 00:38:23;;;;;;;8.10;1.70;;;10.60;99.90;;;;;;5058083;28;20033;-66
2023/12/21 00:40:48;;;;;;;7.38;2.03;;;10.60;99.90;;;;;;5074820;28;20120;-69
2023/12/21 00:43:14;;;;;;;8.98;2.20;;;10.60;99.90;;;;;;5058796;28;20043;-68
2023/12/21 00:45:40;;;;;;;8.40;2.15;;;10.70;99.90;;;;;;5041278;28;20039;-73
2023/12/21 00:48:06;;;;;;;7.63;2.30;;;10.70;99.90;;;;;;5024866;28;20051;-67
2023/12/21 00:50:32;;;;;;;6.18;2.03;;;10.70;99.90;;;;;;5058651;28;20040;-67
2023/12/21 00:52:58;;;;;;;6.75;2.15;;;10.60;99.90;;;;;;5074381;28;20378;-67
2023/12/21 00:55:23;;;;;;;7.25;2.22;;;10.70;99.90;;;;;;5041266;28;20039;-67
2023/12/21 00:57:49;;;;;;;8.40;2.03;;;10.70;99.90;;;;;;5057828;28;20033;-68
2023/12/21 01:00:15;;;;;;;6.57;1.95;;;10.70;99.90;;;;;;5074365;28;20037;-68
2023/12/21 01:02:41;;;;;;;7.15;2.10;;;10.70;99.90;;;;;;5058627;28;20045;-71
2023/12/21 01:05:07;;;;;;;7.75;2.35;;;10.70;99.90;;;;;;5074124;28;20403;-68
2023/12/21 01:07:33;;;;;;;7.65;2.20;;;10.60;99.90;;;;;;5057602;28;20029;-67
2023/12/21 01:09:59;;;;;;;11.93;2.08;;;10.60;99.90;;;;;;5024465;28;20032;-69
2023/12/21 01:12:24;;;;;;;8.25;2.70;;;10.60;99.90;;;;;;5058355;28;20043;-66
2023/12/21 01:14:50;;;;;;;11.75;2.72;;;10.60;99.90;;;;;;5058069;28;20098;-67
2023/12/21 01:17:17;;;;;;;10.77;2.45;;;10.60;99.90;;;;;;5073842;28;20031;-67
2023/12/21 01:19:42;;;;;;;6.68;2.58;;;10.60;99.90;;;;;;5057930;28;20039;-66
2023/12/21 01:22:08;;;;;;;7.93;3.08;;;10.70;99.90;;;;;;5040530;28;20115;-68
2023/12/21 01:24:34;;;;;;;10.35;3.17;;;10.70;99.90;;;;;;5057942;28;20067;-65
2023/12/21 01:27:00;;;;;;;12.77;3.20;;;10.80;99.90;;;;;;5057698;28;20029;-68
2023/12/21 01:29:25;;;;;;;9.20;3.13;;;10.80;99.90;;;;;;5073122;28;20045;-67
2023/12/21 01:31:51;;;;;;;11.55;3.53;;;10.80;99.90;;;;;;5056967;28;20404;-67
2023/12/21 01:34:17;;;;;;;7.97;3.22;;;10.80;99.90;;;;;;5057503;28;20400;-67
2023/12/21 01:36:44;;;;;;;8.32;3.08;;;10.70;99.90;;;;;;5057699;28;20036;-69
2023/12/21 01:39:10;;;;;;;11.82;3.47;;;10.70;99.90;;;;;;5057561;28;20029;-66
2023/12/21 01:41:35;;;;;;;7.75;3.22;;;10.70;99.90;;;;;;5056818;28;20116;-67
2023/12/21 01:44:02;;;;;;;12.05;3.00;;;10.70;99.90;;;;;;5056676;28;20040;-67
2023/12/21 01:46:29;;;;;;;10.70;3.25;;;10.70;99.90;;;;;;5073640;28;20037;-66
2023/12/21 01:48:55;;;;;;;12.13;3.13;;;10.70;99.90;;;;;;5057603;28;20372;-66
2023/12/21 01:51:21;;;;;;;12.52;3.00;;;10.90;99.90;;;;;;5073374;28;20108;-66
2023/12/21 01:53:49;;;;;;;8.18;3.03;;;10.80;99.90;;;;;;5057409;28;20031;-66
2023/12/21 01:56:15;;;;;;;12.32;3.28;;;10.70;99.90;;;;;;5073247;28;20396;-67
2023/12/21 01:58:41;;;;;;;8.02;2.90;;;10.90;99.90;;;;;;5057257;28;20091;-67
2023/12/21 02:01:07;;;;;;;11.10;3.08;;;10.90;99.90;;;;;;5039816;28;20102;-68
2023/12/21 02:03:34;;;;;;;11.77;2.58;;;11.10;99.90;;;;;;5056413;28;20071;-67
2023/12/21 02:06:00;;;;;;;11.27;2.83;;;11.20;99.90;;;;;;5056288;28;20029;-70
2023/12/21 02:08:26;;;;;;;10.45;2.70;;;11.10;99.90;;;;;;5057006;28;20036;-68
2023/12/21 02:10:58;;;;;;;9.15;2.65;;;10.90;99.90;;;;;;5057264;28;20029;-69
2023/12/21 02:13:24;;;;;;;14.25;3.17;;;10.90;99.90;;;;;;5057112;28;20024;-67
2023/12/21 02:15:53;;;;;;;12.07;3.13;;;10.90;99.90;;;;;;5039685;28;20136;-68
2023/12/21 02:18:20;;;;;;;12.00;2.78;;;10.90;99.90;;;;;;5056981;28;20288;-68
2023/12/21 02:20:47;;;;;;;13.32;2.95;;;10.90;99.90;;;;;;5056481;28;20116;-67
2023/12/21 02:23:16;;;;;;;13.18;2.63;;;11.00;99.90;;;;;;5056167;28;20047;-68
2023/12/21 02:25:42;;;;;;;15.02;3.22;;;11.10;99.90;;;;;;5057037;28;20033;-65
2023/12/21 02:28:08;;;;;;;10.13;3.00;;;11.00;99.90;;;;;;5072816;28;20458;-70
2023/12/21 02:30:34;;;;;;;9.73;2.85;;;11.10;99.90;;;;;;5072840;28;20053;-68
2023/12/21 02:32:59;;;;;;;11.85;3.40;;;11.00;99.90;;;;;;5056795;28;20116;-66
2023/12/21 02:35:25;;;;;;;9.88;3.17;;;10.80;99.90;;;;;;5072817;28;20354;-67
2023/12/21 02:37:51;;;;;;;10.50;3.10;;;10.80;99.90;;;;;;5056148;28;20033;-69
2023/12/21 02:40:17;;;;;;;11.00;2.75;;;10.90;99.90;;;;;;5039405;28;20108;-68
2023/12/21 02:42:42;;;;;;;15.57;3.35;;;10.90;99.90;;;;;;5056595;28;20041;-67
2023/12/21 02:45:08;;;;;;;17.42;4.13;;;10.90;99.90;;;;;;5039428;28;20389;-71
2023/12/21 02:47:34;;;;;;;12.70;3.10;;;10.90;99.90;;;;;;5055920;28;20033;-67
2023/12/21 02:50:00;;;;;;;11.77;3.05;;;10.90;99.90;;;;;;5039193;28;20174;-68
2023/12/21 02:52:26;;;;;;;13.35;2.97;;;10.90;99.90;;;;;;5060097;28;20024;-67
2023/12/21 02:54:51;;;;;;;15.05;3.20;;;10.90;99.90;;;;;;5078902;28;20040;-65
2023/12/21 02:57:17;;;;;;;14.20;3.35;;;10.90;99.90;;;;;;5078996;28;20040;-67
2023/12/21 02:59:44;;;;;;;11.93;2.78;;;10.80;99.90;;;;;;5063178;28;20033;-67
2023/12/21 03:02:09;;;;;;;8.50;2.55;;;10.80;99.90;;;;;;5078949;28;20277;-70
2023/12/21 03:04:35;;;;;;;12.20;3.10;;;10.90;99.90;;;;;;5045738;28;20037;-68
2023/12/21 03:07:02;;;;;;;12.35;2.88;;;11.00;99.90;;;;;;5078784;28;20025;-68
2023/12/21 03:09:28;;;;;;;10.18;2.33;;;11.00;99.90;;;;;;5063119;28;20090;-69
2023/12/21 03:11:54;;;;;;;12.35;3.00;;;11.20;99.90;;;;;;5063107;28;20028;-70
2023/12/21 03:14:22;;;;;;;18.73;3.22;;;11.20;99.90;;;;;;5062217;28;20044;-68
2023/12/21 03:16:49;;;;;;;12.00;3.25;;;11.20;99.90;;;;;;5062937;28;20044;-66
2023/12/21 03:19:14;;;;;;;14.43;2.63;;;11.20;99.90;;;;;;5029050;28;20029;-66
2023/12/21 03:21:40;;;;;;;14.23;2.97;;;11.10;99.90;;;;;;5062839;28;20097;-66
2023/12/21 03:24:06;;;;;;;9.80;2.35;;;11.10;99.90;;;;;;5078798;28;20041;-65
2023/12/21 03:26:32;;;;;;;15.32;2.70;;;11.00;99.90;;;;;;5062787;28;20037;-68
2023/12/21 03:28:58;;;;;;;13.05;2.35;;;11.00;99.90;;;;;;5062685;28;20202;-71
2023/12/21 03:31:23;;;;;;;13.50;2.45;;;11.10;99.90;;;;;;5062887;28;20167;-69
2023/12/21 03:33:49;;;;;;;17.05;3.42;;;11.10;99.90;;;;;;5062080;28;20186;-69
2023/12/21 03:36:15;;;;;;;13.45;2.65;;;11.00;99.90;;;;;;5078626;28;20285;-68
2023/12/21 03:38:41;;;;;;;13.75;2.42;;;11.20;99.90;;;;;;5062860;28;20035;-66
2023/12/21 03:41:08;;;;;;;9.25;2.40;;;11.10;99.90;;;;;;5079044;28;20048;-70
2023/12/21 03:43:34;;;;;;;8.82;2.17;;;11.00;99.90;;;;;;5028807;28;20040;-71
2023/12/21 03:46:00;;;;;;;12.23;2.95;;;11.10;99.90;;;;;;5062608;28;20032;-68
2023/12/21 03:48:26;;;;;;;13.38;2.88;;;11.10;99.90;;;;;;5061844;28;20124;-68
2023/12/21 03:50:51;;;;;;;12.10;2.72;;;11.20;99.90;;;;;;5078681;28;20032;-65
2023/12/21 03:53:17;;;;;;;12.90;2.75;;;11.10;99.90;;;;;;5061988;28;20033;-65
2023/12/21 03:55:43;;;;;;;14.80;3.25;;;11.10;99.90;;;;;;5061968;28;20032;-71
2023/12/21 03:58:09;;;;;;;13.45;3.25;;;11.10;99.90;;;;;;5045223;28;20031;-69
2023/12/21 04:00:35;;;;;;;12.05;2.97;;;11.10;99.90;;;;;;5078564;28;20051;-67
2023/12/21 04:03:01;;;;;;;11.50;3.53;;;11.00;99.90;;;;;;5060671;28;20384;-68
2023/12/21 04:05:27;;;;;;;10.18;3.50;;;10.90;99.90;;;;;;5059233;28;20025;-67
2023/12/21 04:07:53;;;;;;;14.80;3.40;;;10.80;99.90;;;;;;5025595;28;20040;-69
2023/12/21 04:10:18;;;;;;;12.85;3.40;;;10.70;99.90;;;;;;5058521;28;20071;-67
2023/12/21 04:12:44;;;;;;;13.95;3.25;;;10.60;99.90;;;;;;5075197;28;20444;-70
2023/12/21 04:15:11;;;;;;;10.15;3.08;;;10.60;99.90;;;;;;5075253;28;20032;-71
2023/12/21 04:17:37;;;;;;;8.73;3.38;;;10.60;99.90;;;;;;5058618;28;20037;-70
2023/12/21 04:20:04;;;;;;;15.23;3.50;;;10.60;99.90;;;;;;5059163;28;20297;-67
2023/12/21 04:22:30;;;;;;;14.85;4.07;;;10.60;99.90;;;;;;5058947;28;20102;-71
2023/12/21 04:24:56;;;;;;;16.27;3.83;;;10.80;99.90;;;;;;5041656;28;20400;-71
2023/12/21 04:27:22;;;;;;;11.45;3.45;;;10.90;99.90;;;;;;5024793;28;20055;-70
2023/12/21 04:29:48;;;;;;;12.85;3.63;;;11.00;99.90;;;;;;5074780;28;20059;-71
2023/12/21 04:32:14;;;;;;;16.02;3.40;;;11.00;99.90;;;;;;5041633;28;20402;-71
2023/12/21 04:34:43;;;;;;;15.07;3.60;;;11.00;99.90;;;;;;5025051;28;20033;-70
2023/12/21 04:37:08;;;;;;;13.32;3.50;;;11.00;99.90;;;;;;5058814;28;20041;-69
2023/12/21 04:39:34;;;;;;;14.10;3.70;;;11.20;99.90;;;;;;5058750;28;20108;-71
2023/12/21 04:42:00;;;;;;;13.60;3.50;;;11.10;99.90;;;;;;5074681;28;20087;-70
2023/12/21 04:44:26;;;;;;;11.88;3.22;;;11.20;99.90;;;;;;5074658;28;20071;-70
2023/12/21 04:46:52;;;;;;;10.82;2.95;;;11.20;99.90;;;;;;5057989;28;20042;-71
2023/12/21 04:49:20;;;;;;;10.52;2.83;;;11.30;99.90;;;;;;5074509;28;20297;-72
2023/12/21 04:51:46;;;;;;;9.48;3.40;;;11.30;99.90;;;;;;5041420;28;20037;-68
2023/12/21 04:54:12;;;;;;;9.70;3.10;;;11.20;99.90;;;;;;5074498;28;20040;-69
2023/12/21 04:56:41;;;;;;;9.70;3.33;;;11.20;99.90;;;;;;5041048;28;20503;-68
2023/12/21 04:59:08;;;;;;;11.40;3.38;;;11.20;99.90;;;;;;5058363;28;20055;-69
2023/12/21 05:01:34;;;;;;;16.35;3.35;;;11.10;99.90;;;;;;5058279;28;20402;-70
2023/12/21 05:04:03;;;;;;;11.77;3.10;;;11.10;99.90;;;;;;5058197;28;20377;-67
2023/12/21 05:06:29;;;;;;;15.52;3.55;;;11.00;99.90;;;;;;5073956;28;20040;-66
2023/12/21 05:08:56;;;;;;;10.80;3.10;;;11.20;99.90;;;;;;5057989;28;20036;-68
2023/12/21 05:11:22;;;;;;;11.82;3.00;;;11.30;99.90;;;;;;5057378;28;20392;-68
2023/12/21 05:13:48;;;;;;;10.55;2.88;;;11.40;99.90;;;;;;5057969;28;20032;-67
2023/12/21 05:16:14;;;;;;;11.63;2.78;;;11.50;99.90;;;;;;5057639;28;20127;-67
2023/12/21 05:18:40;;;;;;;13.38;3.45;;;11.20;99.90;;;;;;5057931;28;20323;-70
2023/12/21 05:21:09;;;;;;;6.63;2.85;;;11.10;99.90;;;;;;5057185;28;20128;-69
2023/12/21 05:23:35;;;;;;;13.07;3.10;;;11.20;99.90;;;;;;5057137;28;20357;-67
2023/12/21 05:26:01;;;;;;;9.52;2.45;;;11.30;99.90;;;;;;5057714;28;20162;-71
2023/12/21 05:28:27;;;;;;;12.70;2.83;;;11.30;99.90;;;;;;5057212;28;20103;-65
2023/12/21 05:30:52;;;;;;;7.90;2.90;;;11.30;99.90;;;;;;5073606;28;20041;-69
2023/12/21 05:33:18;;;;;;;10.75;2.42;;;11.20;99.90;;;;;;5057667;28;20396;-71
2023/12/21 05:35:44;;;;;;;14.75;2.72;;;11.20;99.90;;;;;;5040358;28;20089;-68
2023/12/21 05:38:10;;;;;;;10.43;2.38;;;11.30;99.90;;;;;;5056797;28;20045;-72
2023/12/21 05:40:36;;;;;;;10.10;2.65;;;11.40;99.90;;;;;;5073566;28;20423;-68
2023/12/21 05:43:01;;;;;;;9.55;2.72;;;11.30;99.90;;;;;;5056597;28;20040;-69
2023/12/21 05:45:28;;;;;;;11.73;2.78;;;11.30;99.90;;;;;;5056723;28;20102;-69
2023/12/21 05:47:58;;;;;;;7.47;2.88;;;11.30;99.90;;;;;;5073234;28;20115;-71
2023/12/21 05:50:25;;;;;;;11.30;2.90;;;11.30;99.90;;;;;;5056591;28;20052;-70
2023/12/21 05:52:51;;;;;;;11.32;3.05;;;11.40;99.90;;;;;;5056649;28;20040;-71
2023/12/21 05:55:17;;;;;;;11.05;2.88;;;11.50;99.90;;;;;;5057434;28;20029;-68
2023/12/21 05:57:45;;;;;;;9.77;3.22;;;11.40;99.90;;;;;;5056658;28;20037;-69
2023/12/21 06:00:12;;;;;;;11.43;2.85;;;11.30;99.90;;;;;;5056321;28;20343;-68
2023/12/21 06:02:38;;;;;;;13.75;2.90;;;11.30;99.90;;;;;;5057179;28;20436;-71
2023/12/21 06:05:04;;;;;;;11.57;2.53;;;11.30;99.90;;;;;;5057075;28;20075;-70
2023/12/21 06:07:30;;;;;;;13.75;2.40;;;11.30;99.90;;;;;;5056299;28;20051;-69
2023/12/21 06:09:56;;;;;;;11.68;2.30;;;11.40;99.90;;;;;;5057087;28;20060;-70
2023/12/21 06:12:22;;;;;;;14.02;3.00;;;11.40;99.90;;;;;;5072734;28;20034;-69
2023/12/21 06:14:48;;;;;;;5.40;1.63;;;11.40;99.90;;;;;;5056173;28;20094;-69
2023/12/21 06:17:15;;;;;;;11.10;1.77;;;11.40;99.90;;;;;;5056866;28;20056;-69
2023/12/21 06:19:44;;;;;;;13.38;2.05;;;11.30;99.90;;;;;;5055919;28;20033;-70
2023/12/21 06:22:09;;;;;;;9.52;1.23;;;11.40;99.90;;;;;;5072589;28;20308;-69
2023/12/21 06:24:35;;;;;;;8.05;1.30;;;11.40;99.90;;;;;;5056049;28;20033;-71
2023/12/21 06:27:02;;;;;;;8.85;1.63;;;11.50;99.90;;;;;;5071887;28;20040;-70
2023/12/21 06:29:28;;;;;;;7.43;1.85;;;11.50;99.90;;;;;;5072804;28;20076;-69
2023/12/21 06:31:54;;;;;;;11.23;1.38;;;11.50;99.90;;;;;;5039579;28;20032;-72
2023/12/21 06:34:20;;;;;;;8.77;1.83;;;11.50;99.90;;;;;;5072575;28;20116;-72
2023/12/21 06:36:46;;;;;;;6.20;1.42;;;11.40;99.90;;;;;;5055688;28;20044;-68
2023/12/21 06:39:12;;;;;;;9.60;1.50;;;11.40;99.90;;;;;;5072500;28;20099;-70
2023/12/21 06:41:38;;;;;;;9.68;1.40;;;11.40;99.90;;;;;;5055731;28;20043;-70
2023/12/21 06:44:04;;;;;;;8.10;1.60;;;11.40;99.90;;;;;;5072637;28;20385;-67
2023/12/21 06:46:30;;;;;;;8.13;1.38;;;11.50;99.90;;;;;;5056551;28;20029;-69
2023/12/21 06:48:56;;;;;;;5.32;1.27;;;11.40;99.90;;;;;;5039158;28;20407;-71
2023/12/21 06:51:22;;;;;;;6.88;1.55;;;11.50;99.90;;;;;;5039292;28;20075;-68
2023/12/21 06:53:49;;;;;;;9.98;1.63;;;11.40;99.90;;;;;;5056616;28;20029;-71
2023/12/21 06:56:16;;;;;;;9.13;1.77;;;11.60;99.90;;;;;;5072365;28;20029;-70
2023/12/21 06:58:42;;;;;;;8.93;1.92;;;11.60;99.90;;;;;;5055731;28;20037;-72
2023/12/21 07:01:08;;;;;;;8.00;1.60;;;11.60;99.90;;;;;;5055761;28;20036;-69
2023/12/21 07:03:34;;;;;;;8.43;1.80;;;11.60;99.90;;;;;;5023092;28;20033;-69
2023/12/21 07:06:00;;;;;;;7.03;1.40;;;11.70;99.90;;;;;;5072385;28;20094;-67
2023/12/21 07:08:25;;;;;;;7.50;1.70;;;11.60;99.90;;;;;;5055910;28;20025;-73
2023/12/21 07:10:53;;;;;;;6.32;1.20;;;11.70;99.90;;;;;;5056417;28;20033;-69
2023/12/21 07:13:19;;;;;;;9.02;1.35;;;11.70;99.90;;;;;;5056208;28;20033;-70
2023/12/21 07:15:45;;;;;;;5.40;1.58;;;11.70;99.90;;;;;;5056324;28;20049;-71
2023/12/21 07:18:11;;;;;;;6.78;1.52;;;11.80;99.90;;;;;;5055448;28;20304;-70
2023/12/21 07:20:37;;;;;;;5.03;1.27;;;11.90;99.90;;;;;;5055577;28;20041;-68
2023/12/21 07:23:03;;;;;;;8.52;1.67;;;12.00;99.90;;;;;;5056295;28;20110;-72
2023/12/21 07:25:28;;;;;;;6.20;1.10;;;12.00;99.90;;;;;;5039015;28;20048;-60
2023/12/21 07:27:54;;;;;;;7.28;1.50;;;12.00;99.90;;;;;;5056212;28;20361;-68
2023/12/21 07:30:20;;;;;;;6.80;1.35;;;12.00;99.90;;;;;;5056334;28;20053;-72
2023/12/21 07:32:46;;;;;;;10.70;1.98;;;11.90;99.90;;;;;;5056090;28;20024;-72
2023/12/21 07:35:12;;;;;;;5.93;1.48;;;11.90;99.90;;;;;;5038897;28;20025;-67
2023/12/21 07:37:38;;;;;;;7.00;1.38;;;11.80;99.90;;;;;;5056729;28;20033;-71
2023/12/21 07:40:04;;;;;;;6.38;1.52;;;11.70;99.90;;;;;;5026031;28;20397;-69
2023/12/21 07:42:30;;;;;;;6.15;1.25;;;11.80;99.90;;;;;;5042636;28;20116;-72
2023/12/21 07:44:56;;;;;;;7.15;1.60;;;11.80;99.90;;;;;;5059709;28;20435;-72
2023/12/21 07:47:22;;;;;;;4.40;1.40;;;11.80;99.90;;;;;;5058812;28;20036;-66
2023/12/21 07:49:48;;;;;;;6.32;1.30;;;11.70;99.90;;;;;;5059926;28;20044;-69
2023/12/21 07:52:14;;;;;;;8.52;1.40;;;11.60;99.90;;;;;;5075390;28;20029;-71
2023/12/21 07:54:39;;;;;;;5.68;1.30;;;11.40;99.90;;;;;;5042226;28;20065;-65
2023/12/21 07:57:05;;;;;;;5.60;1.30;;;11.40;99.90;;;;;;5059478;28;20310;-67
2023/12/21 07:59:31;;;;;;;6.45;1.63;;;11.30;99.90;;;;;;5059410;28;20126;-70
2023/12/21 08:01:57;;;;;;;7.72;1.30;;;11.30;99.90;;;;;;5058611;28;20029;-70
2023/12/21 08:04:23;;;;;;;4.38;1.20;;;11.20;99.90;;;;;;5058502;28;20036;-67
2023/12/21 08:06:48;;;;;;;4.97;1.40;;;11.30;99.90;;;;;;5075126;28;20037;-70
2023/12/21 08:09:15;;;;;;;6.15;1.70;;;11.40;99.90;;;;;;5041850;28;20029;-66
2023/12/21 08:11:41;;;;;;;8.23;1.40;;;11.40;99.90;;;;;;5059302;28;20067;-72
2023/12/21 08:14:07;;;;;;;6.75;1.50;;;11.50;99.90;;;;;;5059430;28;20029;-67
2023/12/21 08:16:33;;;;;;;5.47;1.30;;;11.40;99.90;;;;;;5058305;28;20047;-71
2023/12/21 08:18:58;;;;;;;5.93;1.50;;;11.50;99.90;;;;;;5058921;28;20029;-67
2023/12/21 08:21:24;;;;;;;5.78;1.60;;;11.50;99.90;;;;;;5058822;28;20041;-70
2023/12/21 08:23:50;;;;;;;4.63;1.50;;;11.40;99.90;;;;;;5057942;28;20308;-67
2023/12/21 08:26:16;;;;;;;6.53;1.60;;;11.30;99.90;;;;;;5058686;28;20286;-69
2023/12/21 08:28:42;;;;;;;5.03;1.80;;;11.30;99.90;;;;;;5058567;28;20082;-70
2023/12/21 08:31:08;;;;;;;8.90;1.95;;;11.30;99.90;;;;;;5024959;28;20365;-67
2023/12/21 08:33:36;;;;;;;5.95;1.45;;;11.30;99.90;;;;;;5058088;28;20112;-67
2023/12/21 08:36:03;;;;;;;8.55;1.77;;;11.20;99.90;;;;;;5074481;28;20029;-67
2023/12/21 08:38:29;;;;;;;3.72;1.48;;;11.20;99.90;;;;;;5058558;28;20044;-70
2023/12/21 08:40:55;;;;;;;4.82;1.38;;;11.20;99.90;;;;;;5041057;28;20041;-69
2023/12/21 08:43:21;;;;;;;5.20;1.30;;;11.20;99.90;;;;;;5024817;28;20096;-68
2023/12/21 08:45:47;;;;;;;6.97;1.52;;;11.20;99.90;;;;;;5057404;28;20095;-68
2023/12/21 08:48:13;;;;;;;4.18;1.40;;;11.20;99.90;;;;;;5058465;28;20025;-67
2023/12/21 08:50:39;;;;;;;6.00;1.60;;;11.20;99.90;;;;;;5057406;28;20220;-70
2023/12/21 08:53:05;;;;;;;3.30;1.40;;;11.20;99.90;;;;;;5057310;28;20044;-65
2023/12/21 08:55:30;;;;;;;4.72;1.60;;;11.20;99.90;;;;;;5058415;28;20041;-71
2023/12/21 08:57:57;;;;;;;4.80;1.00;;;11.30;99.90;;;;;;5040798;28;20296;-71
2023/12/21 09:00:24;;;;;;;3.88;1.30;;;11.50;99.90;;;;;;5057524;28;20039;-68
2023/12/21 09:02:50;;;;;;;3.03;1.00;;;11.50;99.90;;;;;;5058151;28;20324;-66
2023/12/21 09:05:16;;;;;;;3.10;1.42;;;11.50;99.90;;;;;;5057465;28;20028;-71
2023/12/21 09:07:42;;;;;;;5.43;1.40;;;11.60;99.90;;;;;;5073869;28;20055;-67
2023/12/21 09:10:08;;;;;;;4.82;1.30;;;11.60;99.90;;;;;;5058335;28;20025;-64
2023/12/21 09:12:33;;;;;;;5.50;1.35;;;11.70;99.90;;;;;;5057517;28;20392;-68
2023/12/21 09:14:59;;;;;;;5.90;1.55;;;11.70;99.90;;;;;;5040799;28;20029;-70
2023/12/21 09:17:25;;;;;;;6.15;1.20;;;11.90;99.90;;;;;;5058142;28;20020;-67
2023/12/21 09:19:51;;;;;;;4.70;1.15;;;11.90;99.90;;;;;;5057501;28;20358;-71
2023/12/21 09:22:17;;;;;;;4.30;1.23;;;12.00;99.90;;;;;;5057321;28;20025;-72
2023/12/21 09:24:42;;;;;;;5.68;1.52;;;12.10;99.90;;;;;;5057367;28;20127;-69
2023/12/21 09:27:08;;;;;;;2.65;0.90;;;12.20;99.90;;;;;;5057855;28;20452;-65
2023/12/21 09:29:34;;;;;;;5.82;1.40;;;12.20;99.90;;;;;;5057750;28;20049;-71
2023/12/21 09:32:00;;;;;;;7.78;1.17;;;12.30;99.90;;;;;;5040385;28;20031;-68
2023/12/21 09:34:26;;;;;;;2.97;1.00;;;12.30;99.90;;;;;;5057198;28;20194;-69
2023/12/21 09:36:54;;;;;;;4.53;1.20;;;12.30;99.90;;;;;;5057049;28;20063;-68
2023/12/21 09:39:20;;;;;;;4.32;0.85;;;12.20;99.90;;;;;;5040759;28;20029;-67
2023/12/21 09:41:46;;;;;;;3.65;1.17;;;12.20;99.90;;;;;;5057635;28;20094;-65
2023/12/21 09:44:16;;;;;;;4.65;1.00;;;12.20;99.90;;;;;;5057705;28;20396;-67
2023/12/21 09:46:46;;;;;;;4.32;1.15;;;12.30;99.90;;;;;;5040850;28;20051;-67
2023/12/21 09:49:14;;;;;;;6.32;1.25;;;12.40;99.90;;;;;;5073369;28;20123;-69
2023/12/21 09:51:41;;;;;;;3.53;0.95;;;12.40;99.90;;;;;;5056861;28;20033;-70
2023/12/21 09:54:09;;;;;;;3.25;1.10;;;12.50;99.90;;;;;;5056626;28;20047;-66
2023/12/21 09:56:35;;;;;;;4.28;1.02;;;12.50;99.90;;;;;;5057533;28;20033;-67
2023/12/21 09:59:03;;;;;;;1.70;0.85;;;12.60;99.90;;;;;;5057409;28;20307;-66
2023/12/21 10:01:29;;;;;;;5.97;0.98;;;12.50;99.90;;;;;;5056368;28;20093;-67
2023/12/21 10:03:57;;;;;;;4.07;1.02;;;12.60;99.90;;;;;;5039975;28;20041;-66
2023/12/21 10:06:24;;;;;;;5.00;1.10;;;12.60;99.90;;;;;;5057180;28;20052;-66
2023/12/21 10:08:50;;;;;;;4.55;0.90;;;12.60;99.90;;;;;;5057301;28;20025;-63
2023/12/21 10:11:16;;;;;;;2.88;0.80;;;12.70;99.90;;;;;;5040221;28;20068;-62
2023/12/21 10:13:47;;;;;;;3.33;1.02;;;12.70;99.90;;;;;;5039831;28;20025;-65
2023/12/21 10:16:13;;;;;;;1.92;0.90;;;12.70;99.90;;;;;;5057164;28;20420;-63
2023/12/21 10:18:39;;;;;;;5.05;1.00;;;12.70;99.90;;;;;;5057105;28;20190;-67
2023/12/21 10:21:05;;;;;;;4.78;0.90;;;12.80;99.90;;;;;;5057157;28;20045;-66
2023/12/21 10:23:31;;;;;;;6.00;0.82;;;12.90;99.90;;;;;;5057024;28;20040;-66
2023/12/21 10:25:58;;;;;;;3.08;0.90;;;12.90;99.90;;;;;;5056915;28;20036;-66
2023/12/21 10:28:24;;;;;;;5.82;0.98;;;13.00;99.90;;;;;;5072740;28;20037;-67
2023/12/21 10:30:54;;;;;;;3.90;0.80;;;12.90;99.90;;;;;;5023062;28;20174;-68
2023/12/21 10:33:20;;;;;;;4.18;0.80;;;12.80;99.90;;;;;;5057152;28;20062;-64
2023/12/21 10:35:46;;;;;;;3.55;0.93;;;12.90;99.90;;;;;;5056040;28;20025;-66
2023/12/21 10:38:14;;;;;;;2.53;0.70;;;12.90;99.90;;;;;;5056769;28;20048;-68
2023/12/21 10:40:43;;;;;;;3.50;0.60;;;12.80;99.90;;;;;;5072601;28;20033;-71
2023/12/21 10:43:10;;;;;;;1.58;0.63;;;12.80;99.90;;;;;;5056598;28;20045;-73
2023/12/21 10:45:36;;;;;;;3.72;0.73;;;12.70;99.90;;;;;;5056061;28;20062;-72
2023/12/21 10:48:13;;;;;;;4.13;0.60;;;12.60;99.90;;;;;;5056076;28;20391;-74
2023/12/21 10:50:39;;;;;;;5.50;0.73;;;12.60;99.90;;;;;;5072689;28;20036;-71
2023/12/21 10:53:05;;;;;;;2.30;0.65;;;12.60;99.90;;;;;;5072414;28;20021;-69
2023/12/21 10:55:31;;;;;;;4.05;0.90;;;12.50;99.90;;;;;;5056620;28;20337;-72
2023/12/21 10:58:00;;;;;;;3.47;0.82;;;12.40;99.90;;;;;;5072428;28;20036;-72
2023/12/21 11:00:26;;;;;;;4.53;0.80;;;12.30;99.90;;;;;;5056634;28;20386;-69
2023/12/21 11:02:53;;;;;;;3.25;0.77;;;12.30;99.90;;;;;;5072441;28;20096;-67
2023/12/21 11:05:22;;;;;;;1.63;0.73;;;12.20;99.90;;;;;;5055730;28;20037;-67
2023/12/21 11:07:53;;;;;;;3.08;0.93;;;12.00;99.90;;;;;;5055701;28;20083;-63
2023/12/21 11:10:23;;;;;;;4.63;1.25;;;12.00;99.90;;;;;;5039471;28;20029;-63
2023/12/21 11:12:50;;;;;;;3.03;0.90;;;11.90;99.90;;;;;;5056819;28;20033;-68
2023/12/21 11:15:20;;;;;;;3.88;1.58;;;11.80;99.90;;;;;;5043201;28;20040;-67
2023/12/21 11:17:49;;;;;;;3.47;1.08;;;11.80;99.90;;;;;;5043829;28;20025;-68
2023/12/21 11:20:18;;;;;;;4.07;1.13;;;11.80;99.90;;;;;;5059541;28;20025;-70
2023/12/21 11:22:45;;;;;;;3.30;1.13;;;11.80;99.90;;;;;;5060574;28;20098;-64
2023/12/21 11:25:14;;;;;;;3.90;1.10;;;11.70;99.90;;;;;;5059607;28;20339;-70
2023/12/21 11:27:41;;;;;;;1.67;1.00;;;11.70;99.90;;;;;;5059633;28;20107;-69
2023/12/21 11:30:14;;;;;;;5.43;1.90;;;11.60;99.90;;;;;;5060162;28;20041;-69
2023/12/21 11:32:42;;;;;;;7.13;2.10;;;11.60;99.90;;;;;;5076343;28;20109;-66
2023/12/21 11:35:25;;;;;;;3.15;2.17;;;11.70;99.90;;;;;;5060221;28;20032;-67
2023/12/21 11:37:55;;;;;;;6.50;2.00;;;11.80;99.90;;;;;;5060289;28;20095;-68
2023/12/21 11:40:23;;;;;;;4.47;2.00;;;11.80;99.90;;;;;;5060141;28;20108;-69
2023/12/21 11:42:54;;;;;;;5.88;2.20;;;11.70;99.90;;;;;;5059989;28;20037;-68
2023/12/21 11:45:25;;;;;;;4.72;1.98;;;11.80;99.90;;;;;;5059947;28;20076;-71
2023/12/21 11:47:54;;;;;;;3.75;2.08;;;11.90;99.90;;;;;;5059959;28;20304;-70
2023/12/21 11:50:21;;;;;;;7.53;1.73;;;11.90;99.90;;;;;;5059040;28;20029;-68
2023/12/21 11:52:50;;;;;;;3.38;1.50;;;11.80;99.90;;;;;;5026150;28;20116;-68
2023/12/21 11:55:28;;;;;;;3.83;1.58;;;11.80;99.90;;;;;;5075694;28;20091;-68
2023/12/21 11:58:18;;;;;;;3.53;1.60;;;12.00;99.90;;;;;;5075466;28;20044;-67
2023/12/21 12:00:51;;;;;;;3.97;1.65;;;12.10;99.90;;;;;;5058868;28;20353;-70
2023/12/21 12:03:18;;;;;;;3.47;1.38;;;12.00;99.90;;;;;;5058937;28;20029;-68
2023/12/21 12:05:44;;;;;;;3.47;1.45;;;11.90;99.90;;;;;;5059525;28;20407;-71
2023/12/21 12:08:10;;;;;;;4.53;1.35;;;11.90;99.90;;;;;;5059545;28;20312;-68
2023/12/21 12:10:37;;;;;;;4.40;1.38;;;11.90;99.90;;;;;;5059568;28;20013;-64
2023/12/21 12:13:08;;;;;;;3.05;1.17;;;12.00;99.90;;;;;;5059310;28;20036;-67
2023/12/21 12:15:34;;;;;;;3.22;1.10;;;11.90;99.90;;;;;;5042720;28;20128;-67
2023/12/21 12:18:00;;;;;;;3.85;1.13;;;11.80;99.90;;;;;;5059355;28;20120;-71
2023/12/21 12:20:28;;;;;;;5.80;1.40;;;11.80;99.90;;;;;;5058710;28;20392;-67
2023/12/21 12:22:54;;;;;;;4.53;1.58;;;11.80;99.90;;;;;;5059110;28;20450;-69
2023/12/21 12:25:20;;;;;;;6.10;1.35;;;11.80;99.90;;;;;;5057286;28;20116;-69
2023/12/21 12:27:49;;;;;;;4.10;1.40;;;11.80;99.90;;;;;;5075122;28;20037;-69
2023/12/21 12:30:17;;;;;;;7.45;1.52;;;11.80;99.90;;;;;;5058098;28;20481;-66
2023/12/21 12:32:44;;;;;;;7.88;1.70;;;11.90;99.90;;;;;;5058189;28;20056;-70
2023/12/21 12:35:11;;;;;;;4.93;1.70;;;12.00;99.90;;;;;;5025133;28;20028;-73
2023/12/21 12:37:37;;;;;;;6.72;1.67;;;12.00;99.90;;;;;;5041722;28;20029;-71
2023/12/21 12:40:04;;;;;;;3.78;1.52;;;12.10;99.90;;;;;;5058246;28;20036;-67